createdAt,value
2022-09-21T00:01:11.434Z,2.60
2022-09-21T00:03:39.551Z,3.42
2022-09-21T00:06:07.510Z,3.28
2022-09-21T00:08:34.668Z,3.33
2022-09-21T00:11:03.571Z,2.90
2022-09-21T00:13:32.478Z,3.40
2022-09-21T00:15:59.748Z,3.28
2022-09-21T00:18:27.211Z,3.45
2022-09-21T00:20:54.373Z,3.40
2022-09-21T00:23:21.551Z,3.75
2022-09-21T00:25:48.637Z,3.10
2022-09-21T00:28:15.725Z,3.75
2022-09-21T00:30:43.962Z,3.40
2022-09-21T00:33:11.315Z,3.35
2022-09-21T00:35:39.218Z,3.88
2022-09-21T00:38:06.314Z,3.33
2022-09-21T00:40:33.490Z,3.33
2022-09-21T00:43:13.484Z,3.45
2022-09-21T00:45:40.806Z,3.72
2022-09-21T00:48:07.990Z,3.72
2022-09-21T00:50:36.523Z,3.72
2022-09-21T00:53:05.199Z,3.40
2022-09-21T00:55:38.400Z,3.33
2022-09-21T00:58:09.264Z,3.30
2022-09-21T01:00:37.672Z,3.65
2022-09-21T01:03:05.940Z,3.20
2022-09-21T01:05:33.321Z,2.97
2022-09-21T01:08:02.154Z,2.95
2022-09-21T01:10:30.898Z,2.63
2022-09-21T01:13:24.339Z,2.60
2022-09-21T01:15:51.522Z,2.90
2022-09-21T01:18:26.486Z,2.45
2022-09-21T01:23:29.924Z,2.50
2022-09-21T01:26:06.706Z,2.95
2022-09-21T01:28:52.625Z,2.47
2022-09-21T01:31:22.918Z,2.90
2022-09-21T01:33:53.660Z,2.50
2022-09-21T01:36:24.830Z,3.97
2022-09-21T01:38:54.006Z,2.17
2022-09-21T01:41:23.794Z,2.60
2022-09-21T01:43:55.533Z,2.72
2022-09-21T01:46:23.237Z,2.70
2022-09-21T01:48:53.522Z,2.78
2022-09-21T01:51:21.878Z,2.20
2022-09-21T01:53:53.775Z,2.65
2022-09-21T01:56:24.602Z,2.50
2022-09-21T01:59:10.153Z,2.40
2022-09-21T02:01:41.801Z,2.33
2022-09-21T02:04:10.739Z,2.50
2022-09-21T02:06:39.602Z,2.42
2022-09-21T02:09:06.710Z,2.42
2022-09-21T02:11:33.815Z,2.38
2022-09-21T02:14:00.905Z,2.22
2022-09-21T02:16:41.447Z,2.72
2022-09-21T02:19:13.593Z,2.30
2022-09-21T02:22:10.143Z,2.53
2022-09-21T02:24:37.200Z,2.25
2022-09-21T02:27:19.872Z,2.20
2022-09-21T02:29:52.743Z,2.15
2022-09-21T02:32:50.332Z,2.20
2022-09-21T02:35:37.079Z,2.03
2022-09-21T02:38:06.696Z,2.53
2022-09-21T02:40:40.891Z,1.95
2022-09-21T02:43:23.378Z,2.13
2022-09-21T02:45:57.496Z,2.35
2022-09-21T02:48:27.221Z,2.37
2022-09-21T02:51:00.245Z,2.65
2022-09-21T02:53:32.568Z,2.03
2022-09-21T02:56:03.958Z,2.25
2022-09-21T02:58:32.485Z,2.72
2022-09-21T03:01:00.141Z,2.38
2022-09-21T03:03:27.334Z,2.20
2022-09-21T03:05:55.516Z,2.10
2022-09-21T03:08:22.704Z,1.98
2022-09-21T03:10:50.751Z,2.45
2022-09-21T03:13:18.929Z,2.22
2022-09-21T03:15:46.629Z,2.20
2022-09-21T03:18:14.173Z,2.22
2022-09-21T03:20:42.631Z,2.50
2022-09-21T03:23:09.691Z,2.08
2022-09-21T03:25:36.813Z,2.10
2022-09-21T03:28:03.902Z,2.08
2022-09-21T03:30:32.042Z,2.25
2022-09-21T03:32:59.185Z,2.47
2022-09-21T03:35:30.070Z,2.38
2022-09-21T03:37:58.025Z,2.00
2022-09-21T03:40:26.602Z,2.45
2022-09-21T03:42:54.017Z,2.40
2022-09-21T03:45:22.027Z,2.65
2022-09-21T03:47:49.347Z,1.90
2022-09-21T03:50:16.636Z,2.53
2022-09-21T03:52:43.762Z,2.50
2022-09-21T03:55:10.846Z,2.47
2022-09-21T03:57:38.827Z,2.10
2022-09-21T04:00:07.760Z,2.30
2022-09-21T04:02:35.234Z,2.10
2022-09-21T04:05:02.495Z,2.05
2022-09-21T04:07:34.550Z,2.33
2022-09-21T04:10:01.962Z,2.20
2022-09-21T04:12:29.104Z,2.17
2022-09-21T04:14:56.194Z,2.15
2022-09-21T04:17:23.339Z,2.20
2022-09-21T04:19:50.491Z,2.47
2022-09-21T04:22:18.748Z,2.05
2022-09-21T04:24:46.143Z,2.40
2022-09-21T04:27:13.274Z,2.30
2022-09-21T04:29:40.422Z,2.10
2022-09-21T04:32:07.490Z,2.00
2022-09-21T04:34:34.647Z,2.00
2022-09-21T04:37:01.836Z,2.40
2022-09-21T04:39:28.950Z,2.47
2022-09-21T04:41:56.846Z,2.20
2022-09-21T04:44:24.230Z,2.45
2022-09-21T04:46:51.311Z,2.25
2022-09-21T04:49:18.434Z,2.03
2022-09-21T04:51:45.706Z,2.45
2022-09-21T04:54:12.784Z,2.58
2022-09-21T04:56:39.926Z,2.17
2022-09-21T04:59:07.152Z,2.33
2022-09-21T05:01:34.406Z,2.33
2022-09-21T05:04:02.856Z,2.60
2022-09-21T05:06:30.668Z,2.17
2022-09-21T05:09:16.329Z,2.50
2022-09-21T05:11:43.550Z,2.28
2022-09-21T05:14:11.675Z,2.80
2022-09-21T05:16:38.780Z,2.42
2022-09-21T05:19:06.117Z,2.58
2022-09-21T05:21:33.315Z,2.78
2022-09-21T05:24:00.439Z,2.72
2022-09-21T05:26:27.561Z,2.63
2022-09-21T05:28:54.858Z,3.17
2022-09-21T05:31:22.012Z,3.08
2022-09-21T05:33:56.830Z,3.08
2022-09-21T05:36:46.943Z,2.60
2022-09-21T05:39:14.155Z,3.70
2022-09-21T05:41:41.462Z,3.10
2022-09-21T05:44:10.098Z,3.30
2022-09-21T05:46:42.370Z,3.55
2022-09-21T05:49:16.766Z,3.10
2022-09-21T05:51:43.825Z,3.50
2022-09-21T05:54:43.348Z,3.28
2022-09-21T05:57:20.297Z,4.68
2022-09-21T05:59:47.382Z,4.00
2022-09-21T06:02:14.512Z,4.03
2022-09-21T06:04:41.852Z,4.15
2022-09-21T06:07:08.970Z,3.85
2022-09-21T06:09:38.951Z,3.65
2022-09-21T06:12:11.361Z,3.72
2022-09-21T06:14:38.945Z,3.60
2022-09-21T06:17:06.117Z,3.63
2022-09-21T06:19:33.813Z,4.15
2022-09-21T06:22:00.902Z,3.83
2022-09-21T06:24:28.046Z,3.80
2022-09-21T06:26:55.158Z,3.25
2022-09-21T06:29:23.660Z,3.75
2022-09-21T06:31:51.547Z,3.58
2022-09-21T06:34:18.889Z,3.80
2022-09-21T06:36:46.032Z,3.08
2022-09-21T06:39:13.203Z,3.20
2022-09-21T06:41:40.408Z,3.05
2022-09-21T06:44:07.582Z,3.25
2022-09-21T06:46:34.742Z,2.97
2022-09-21T06:49:01.915Z,3.38
2022-09-21T06:51:29.201Z,3.47
2022-09-21T06:53:56.942Z,3.10
2022-09-21T06:56:24.517Z,3.05
2022-09-21T06:58:52.462Z,3.22
2022-09-21T07:01:20.333Z,3.28
2022-09-21T07:03:50.516Z,3.67
2022-09-21T07:06:18.499Z,3.10
2022-09-21T07:11:33.043Z,2.90
2022-09-21T07:14:00.228Z,2.90
2022-09-21T07:16:28.020Z,3.30
2022-09-21T07:18:55.246Z,2.90
2022-09-21T07:21:22.365Z,3.05
2022-09-21T07:23:49.513Z,2.70
2022-09-21T07:26:16.719Z,2.75
2022-09-21T07:28:43.856Z,2.10
2022-09-21T07:31:13.865Z,2.05
2022-09-21T07:33:41.150Z,2.60
2022-09-21T07:36:12.743Z,2.03
2022-09-21T07:38:43.620Z,2.67
2022-09-21T07:41:11.897Z,2.38
2022-09-21T07:43:41.843Z,1.70
2022-09-21T07:46:10.401Z,1.95
2022-09-21T07:48:37.785Z,1.88
2022-09-21T07:51:06.071Z,2.05
2022-09-21T07:53:37.243Z,1.58
2022-09-21T07:56:05.170Z,1.98
2022-09-21T07:58:51.319Z,1.83
2022-09-21T08:01:18.866Z,1.90
2022-09-21T08:03:46.065Z,1.52
2022-09-21T08:06:13.351Z,1.30
2022-09-21T08:08:41.657Z,1.60
2022-09-21T08:11:09.293Z,1.67
2022-09-21T08:13:36.362Z,1.50
2022-09-21T08:16:04.232Z,1.73
2022-09-21T08:18:31.655Z,1.27
2022-09-21T08:21:00.019Z,1.25
2022-09-21T08:23:30.964Z,1.10
2022-09-21T08:26:02.073Z,1.10
2022-09-21T08:28:31.193Z,0.90
2022-09-21T08:31:05.884Z,1.00
2022-09-21T08:33:33.035Z,1.20
2022-09-21T08:36:01.209Z,1.13
2022-09-21T08:38:32.653Z,1.23
2022-09-21T08:41:01.507Z,1.40
2022-09-21T08:43:32.930Z,1.20
2022-09-21T08:46:01.387Z,1.30
2022-09-21T08:48:35.825Z,1.25
2022-09-21T08:51:06.233Z,1.70
2022-09-21T08:53:35.282Z,1.23
2022-09-21T08:56:03.003Z,1.05
2022-09-21T08:58:34.185Z,0.80
2022-09-21T09:01:07.250Z,0.82
2022-09-21T09:03:46.729Z,0.90
2022-09-21T09:06:24.693Z,1.23
2022-09-21T09:08:57.595Z,1.00
2022-09-21T09:11:24.700Z,1.00
2022-09-21T09:13:55.863Z,1.50
2022-09-21T09:16:41.832Z,1.50
2022-09-21T09:19:11.964Z,1.00
2022-09-21T09:21:41.054Z,1.08
2022-09-21T09:24:37.257Z,1.25
2022-09-21T09:27:04.330Z,1.27
2022-09-21T09:29:40.773Z,1.30
2022-09-21T09:32:12.805Z,1.50
2022-09-21T09:34:42.262Z,1.45
2022-09-21T09:37:17.111Z,0.90
2022-09-21T09:39:48.295Z,1.05
2022-09-21T09:42:20.028Z,1.10
2022-09-21T09:44:49.920Z,1.10
2022-09-21T09:47:17.098Z,1.13
2022-09-21T09:49:59.721Z,1.10
2022-09-21T09:52:27.765Z,0.80
2022-09-21T09:54:55.257Z,1.00
2022-09-21T09:57:28.091Z,0.80
2022-09-21T09:59:56.573Z,1.00
2022-09-21T10:02:27.615Z,0.80
2022-09-21T10:05:03.629Z,0.77
2022-09-21T10:07:38.995Z,0.47
2022-09-21T10:10:25.037Z,0.60
2022-09-21T10:12:52.910Z,0.50
2022-09-21T10:15:21.253Z,0.63
2022-09-21T10:17:49.022Z,0.70
2022-09-21T10:20:17.295Z,0.73
2022-09-21T10:22:48.839Z,0.80
2022-09-21T10:25:17.549Z,0.90
2022-09-21T10:27:46.335Z,1.17
2022-09-21T10:30:42.925Z,0.90
2022-09-21T10:33:20.394Z,0.93
2022-09-21T10:35:51.362Z,0.98
2022-09-21T10:38:22.697Z,1.00
2022-09-21T10:40:50.772Z,0.80
2022-09-21T10:43:34.771Z,1.50
2022-09-21T10:46:03.168Z,1.00
2022-09-21T10:48:30.505Z,1.30
2022-09-21T10:50:57.953Z,0.80
2022-09-21T10:53:28.395Z,0.88
2022-09-21T10:56:15.124Z,1.00
2022-09-21T10:59:03.350Z,0.75
2022-09-21T11:01:31.838Z,0.90
2022-09-21T11:04:01.886Z,0.75
2022-09-21T11:06:32.092Z,0.63
2022-09-21T11:09:01.606Z,0.70
2022-09-21T11:11:28.663Z,1.00
2022-09-21T11:14:01.812Z,0.60
2022-09-21T11:16:28.862Z,0.82
2022-09-21T11:18:55.973Z,0.80
2022-09-21T11:21:41.814Z,0.85
2022-09-21T11:24:29.172Z,0.77
2022-09-21T11:27:10.802Z,0.82
2022-09-21T11:29:42.891Z,0.95
2022-09-21T11:32:16.170Z,1.05
2022-09-21T11:35:01.797Z,1.20
2022-09-21T11:37:38.051Z,1.27
2022-09-21T11:40:15.331Z,0.63
2022-09-21T11:42:48.927Z,0.80
2022-09-21T11:45:25.238Z,0.50
2022-09-21T11:48:00.171Z,0.90
2022-09-21T11:53:22.557Z,0.40
2022-09-21T11:55:49.877Z,0.50
2022-09-21T11:58:23.089Z,0.50
2022-09-21T12:01:08.988Z,0.57
2022-09-21T12:03:50.767Z,0.70
2022-09-21T12:06:17.918Z,0.85
2022-09-21T12:09:03.875Z,0.52
2022-09-21T12:11:44.406Z,0.80
2022-09-21T12:14:29.386Z,1.13
2022-09-21T12:17:24.748Z,0.60
2022-09-21T12:19:55.266Z,0.70
2022-09-21T12:22:30.570Z,0.40
2022-09-21T12:25:00.165Z,0.88
2022-09-21T12:27:33.089Z,0.50
2022-09-21T12:30:17.177Z,0.50
2022-09-21T12:33:05.683Z,2.60
2022-09-21T12:35:35.834Z,0.88
2022-09-21T12:38:17.356Z,0.43
2022-09-21T12:41:07.534Z,0.50
2022-09-21T12:43:53.209Z,0.77
2022-09-21T12:46:29.687Z,0.60
2022-09-21T12:48:57.303Z,0.50
2022-09-21T12:51:43.495Z,0.50
2022-09-21T12:54:29.159Z,0.60
2022-09-21T12:57:29.789Z,0.60
2022-09-21T13:00:06.942Z,0.52
2022-09-21T13:02:46.248Z,0.93
2022-09-21T13:05:16.463Z,0.40
2022-09-21T13:08:03.726Z,0.57
2022-09-21T13:10:54.772Z,0.70
2022-09-21T13:13:31.752Z,0.82
2022-09-21T13:15:59.666Z,0.70
2022-09-21T13:18:32.513Z,0.77
2022-09-21T13:21:15.331Z,0.70
2022-09-21T13:23:42.953Z,1.05
2022-09-21T13:26:11.639Z,0.90
2022-09-21T13:28:57.064Z,0.88
2022-09-21T13:31:40.790Z,0.50
2022-09-21T13:34:20.216Z,0.52
2022-09-21T13:37:08.073Z,0.80
2022-09-21T13:39:35.159Z,0.63
2022-09-21T13:42:22.221Z,0.95
2022-09-21T13:44:49.379Z,0.73
2022-09-21T13:47:28.716Z,0.80
2022-09-21T13:50:00.637Z,0.70
2022-09-21T13:52:30.694Z,1.50
2022-09-21T13:55:04.067Z,0.60
2022-09-21T13:57:42.916Z,1.02
2022-09-21T14:00:10.529Z,0.60
2022-09-21T14:02:39.554Z,0.70
2022-09-21T14:05:19.413Z,0.75
2022-09-21T14:07:48.104Z,0.77
2022-09-21T14:10:20.580Z,0.75
2022-09-21T14:12:48.221Z,0.77
2022-09-21T14:15:19.440Z,0.65
2022-09-21T14:18:07.814Z,0.77
2022-09-21T14:20:39.594Z,0.52
2022-09-21T14:23:30.261Z,0.75
2022-09-21T14:25:58.639Z,0.60
2022-09-21T14:28:35.353Z,1.10
2022-09-21T14:31:22.804Z,0.40
2022-09-21T14:33:54.974Z,0.75
2022-09-21T14:36:37.447Z,0.90
2022-09-21T14:39:07.880Z,1.02
2022-09-21T14:41:39.626Z,0.75
2022-09-21T14:44:07.050Z,0.52
2022-09-21T14:46:36.570Z,0.90
2022-09-21T14:49:04.064Z,0.85
2022-09-21T14:51:31.770Z,1.75
2022-09-21T14:54:08.450Z,1.20
2022-09-21T14:56:40.458Z,0.70
2022-09-21T14:59:15.569Z,0.70
2022-09-21T15:01:56.283Z,0.90
2022-09-21T15:04:23.517Z,0.75
2022-09-21T15:07:19.376Z,0.85
2022-09-21T15:10:14.559Z,0.70
2022-09-21T15:12:53.721Z,0.50
2022-09-21T15:15:40.644Z,1.15
2022-09-21T15:18:20.349Z,0.60
2022-09-21T15:21:04.689Z,0.73
2022-09-21T15:23:41.383Z,0.73
2022-09-21T15:26:10.128Z,1.35
2022-09-21T15:29:04.979Z,0.88
2022-09-21T15:31:32.228Z,0.65
2022-09-21T15:33:59.506Z,1.00
2022-09-21T15:36:28.313Z,0.80
2022-09-21T15:38:59.642Z,0.93
2022-09-21T15:41:35.648Z,3.28
2022-09-21T15:44:29.091Z,0.90
2022-09-21T15:47:00.170Z,1.00
2022-09-21T15:49:29.752Z,0.70
2022-09-21T15:51:59.196Z,0.82
2022-09-21T15:54:37.558Z,0.70
2022-09-21T15:57:08.375Z,1.25
2022-09-21T15:59:35.873Z,1.20
2022-09-21T16:02:11.590Z,0.93
2022-09-21T16:04:49.189Z,0.93
2022-09-21T16:07:33.002Z,1.23
2022-09-21T16:10:00.971Z,0.80
2022-09-21T16:12:41.276Z,1.27
2022-09-21T16:15:14.938Z,1.40
2022-09-21T16:17:53.965Z,1.02
2022-09-21T16:20:23.447Z,1.00
2022-09-21T16:22:52.488Z,1.25
2022-09-21T16:25:19.594Z,0.98
2022-09-21T16:27:51.782Z,1.20
2022-09-21T16:30:45.573Z,1.27
2022-09-21T16:33:31.391Z,1.02
2022-09-21T16:35:58.960Z,1.42
2022-09-21T16:38:27.444Z,1.30
2022-09-21T16:40:57.367Z,0.82
2022-09-21T16:44:08.456Z,1.10
2022-09-21T16:46:51.611Z,0.93
2022-09-21T16:54:50.754Z,1.10
2022-09-21T16:57:56.207Z,1.00
2022-09-21T17:07:15.297Z,1.20
2022-09-21T17:09:44.380Z,1.08
2022-09-21T17:12:17.800Z,1.35
2022-09-21T17:14:46.988Z,1.10
2022-09-21T17:17:27.222Z,1.10
2022-09-21T17:20:01.581Z,1.20
2022-09-21T17:22:29.129Z,1.27
2022-09-21T17:25:30.714Z,1.15
2022-09-21T17:27:58.477Z,1.33
2022-09-21T17:39:55.225Z,1.45
2022-09-21T17:43:03.048Z,1.33
2022-09-21T17:45:42.333Z,1.55
2022-09-21T17:48:22.050Z,1.30
2022-09-21T17:50:52.891Z,1.17
2022-09-21T17:53:52.448Z,1.40
2022-09-21T17:56:32.831Z,1.38
2022-09-21T17:59:08.996Z,1.17
2022-09-21T18:01:40.104Z,1.30
2022-09-21T18:04:08.335Z,1.60
2022-09-21T18:06:35.639Z,1.20
2022-09-21T18:09:03.289Z,1.50
2022-09-21T18:11:33.347Z,1.50
2022-09-21T18:14:06.198Z,1.60
2022-09-21T18:16:46.332Z,1.30
2022-09-21T18:19:13.842Z,1.95
2022-09-21T18:21:43.882Z,1.50
2022-09-21T18:24:20.244Z,1.52
2022-09-21T18:26:49.096Z,1.40
2022-09-21T18:29:41.778Z,1.80
2022-09-21T18:32:28.597Z,1.50
2022-09-21T18:34:58.926Z,1.48
2022-09-21T18:37:41.249Z,1.95
2022-09-21T18:40:32.111Z,1.80
2022-09-21T18:42:59.218Z,1.92
2022-09-21T18:45:32.679Z,1.80
2022-09-21T18:47:59.884Z,1.73
2022-09-21T18:50:31.852Z,1.77
2022-09-21T18:53:06.940Z,1.90
2022-09-21T18:58:01.939Z,1.90
2022-09-21T19:00:31.570Z,2.13
2022-09-21T19:03:16.437Z,1.92
2022-09-21T19:06:04.823Z,2.08
2022-09-21T19:08:54.959Z,2.10
2022-09-21T19:11:41.061Z,1.92
2022-09-21T19:14:14.372Z,2.05
2022-09-21T19:16:47.957Z,2.35
2022-09-21T19:19:23.960Z,2.25
2022-09-21T19:22:10.035Z,2.22
2022-09-21T19:24:54.303Z,2.47
2022-09-21T19:27:21.501Z,2.40
2022-09-21T19:30:00.979Z,2.67
2022-09-21T19:32:46.985Z,2.65
2022-09-21T19:35:17.300Z,2.40
2022-09-21T19:37:44.684Z,2.83
2022-09-21T19:40:12.105Z,2.83
2022-09-21T19:43:09.099Z,2.78
2022-09-21T19:45:46.279Z,2.70
2022-09-21T19:48:17.325Z,2.30
2022-09-21T19:50:54.769Z,2.53
2022-09-21T19:53:43.863Z,2.13
2022-09-21T19:56:33.127Z,3.10
2022-09-21T19:59:18.986Z,2.80
2022-09-21T20:01:52.827Z,2.95
2022-09-21T20:04:27.764Z,2.80
2022-09-21T20:06:57.587Z,3.20
2022-09-21T20:09:29.521Z,3.00
2022-09-21T20:12:01.811Z,3.30
2022-09-21T20:14:33.966Z,2.78
2022-09-21T20:17:04.175Z,3.10
2022-09-21T20:19:37.639Z,3.00
2022-09-21T20:22:15.084Z,2.40
2022-09-21T20:24:48.971Z,2.85
2022-09-21T20:27:26.248Z,2.58
2022-09-21T20:29:58.579Z,2.80
2022-09-21T20:32:35.441Z,2.80
2022-09-21T20:35:02.937Z,3.30
2022-09-21T20:37:30.343Z,3.00
2022-09-21T20:39:57.604Z,3.05
2022-09-21T20:42:25.515Z,3.10
2022-09-21T20:44:52.801Z,4.38
2022-09-21T20:47:20.580Z,3.42
2022-09-21T20:49:48.327Z,3.03
2022-09-21T20:52:16.870Z,3.45
2022-09-21T20:54:49.081Z,2.92
2022-09-21T20:57:16.898Z,3.00
2022-09-21T20:59:44.825Z,3.70
2022-09-21T21:02:12.859Z,3.33
2022-09-21T21:04:41.448Z,2.75
2022-09-21T21:07:12.071Z,3.08
2022-09-21T21:09:39.279Z,3.13
2022-09-21T21:12:06.538Z,3.28
2022-09-21T21:14:33.732Z,2.50
2022-09-21T21:17:00.942Z,2.78
2022-09-21T21:19:28.103Z,2.88
2022-09-21T21:21:55.267Z,2.50
2022-09-21T21:24:51.521Z,2.50
2022-09-21T21:27:19.915Z,2.63
2022-09-21T21:29:50.231Z,2.78
2022-09-21T21:32:18.714Z,3.15
2022-09-21T21:34:46.466Z,2.88
2022-09-21T21:37:15.992Z,2.53
2022-09-21T21:39:43.176Z,2.40
2022-09-21T21:42:10.933Z,2.50
2022-09-21T21:44:38.197Z,2.90
2022-09-21T21:47:21.334Z,2.70
2022-09-21T21:49:52.979Z,2.50
2022-09-21T21:52:20.195Z,2.72
2022-09-21T21:54:47.673Z,2.60
2022-09-21T21:57:15.019Z,2.85
2022-09-21T21:59:43.610Z,2.25
2022-09-21T22:02:10.851Z,2.67
2022-09-21T22:04:38.784Z,2.72
2022-09-21T22:07:06.023Z,2.70
2022-09-21T22:09:33.571Z,2.65
2022-09-21T22:12:02.061Z,2.47
2022-09-21T22:14:29.215Z,2.85
2022-09-21T22:16:59.304Z,2.85
2022-09-21T22:19:26.657Z,2.40
2022-09-21T22:21:54.829Z,3.15
2022-09-21T22:24:22.441Z,2.58
2022-09-21T22:26:49.925Z,3.00
2022-09-21T22:29:17.607Z,2.85
2022-09-21T22:31:46.101Z,2.67
2022-09-21T22:34:13.671Z,3.10
2022-09-21T22:36:41.212Z,2.70
2022-09-21T22:39:08.910Z,2.92
2022-09-21T22:41:37.548Z,2.90
2022-09-21T22:44:04.946Z,2.42
2022-09-21T22:46:32.246Z,2.80
2022-09-21T22:49:00.524Z,2.72
2022-09-21T22:51:28.498Z,3.20
2022-09-21T22:53:56.105Z,3.00
2022-09-21T22:56:24.748Z,2.70
2022-09-21T22:58:53.601Z,3.00
2022-09-21T23:01:24.992Z,2.90
2022-09-21T23:03:53.512Z,2.60
2022-09-21T23:06:22.231Z,2.70
2022-09-21T23:08:50.196Z,2.63
2022-09-21T23:11:27.064Z,2.97
2022-09-21T23:13:54.991Z,3.00
2022-09-21T23:16:22.643Z,2.72
2022-09-21T23:18:50.380Z,3.20
2022-09-21T23:21:19.028Z,3.20
2022-09-21T23:23:46.179Z,2.80
2022-09-21T23:26:14.511Z,2.90
2022-09-21T23:28:42.747Z,2.80
2022-09-21T23:31:10.947Z,2.63
2022-09-21T23:33:39.579Z,3.05
2022-09-21T23:36:07.555Z,3.10
2022-09-21T23:38:34.968Z,2.80
2022-09-21T23:41:13.072Z,3.25
2022-09-21T23:43:40.978Z,2.67
2022-09-21T23:46:08.935Z,2.75
2022-09-21T23:48:36.059Z,2.80
2022-09-21T23:51:03.431Z,2.60
2022-09-21T23:53:31.061Z,3.50
2022-09-21T23:55:58.619Z,2.65
2022-09-21T23:58:26.526Z,2.70
